sensor_id;sensor_type;location;lat;lon;timestamp;pressure;altitude;pressure_sealevel;temperature;humidity
12358;BME280;6243;51.244;6.774;2023-06-19T00:00:07;154118.91;;;26.29;60.43
12358;BME280;6243;51.244;6.774;2023-06-19T00:02:32;154143.38;;;26.39;60.44
12358;BME280;6243;51.244;6.774;2023-06-19T00:04:59;154086.78;;;26.17;61.02
12358;BME280;6243;51.244;6.774;2023-06-19T00:07:25;154099.66;;;26.22;60.32
12358;BME280;6243;51.244;6.774;2023-06-19T00:09:50;154073.91;;;26.12;61.07
12358;BME280;6243;51.244;6.774;2023-06-19T00:12:16;154135.63;;;26.36;60.52
12358;BME280;6243;51.244;6.774;2023-06-19T00:14:41;154067.44;;;26.09;61.34
12358;BME280;6243;51.244;6.774;2023-06-19T00:17:06;154122.81;;;26.31;61.15
12358;BME280;6243;51.244;6.774;2023-06-19T00:19:32;154134.38;;;26.35;60.38
12358;BME280;6243;51.244;6.774;2023-06-19T00:21:59;154066.13;;;26.08;61.17
12358;BME280;6243;51.244;6.774;2023-06-19T00:24:25;154126.66;;;26.32;61.24
12358;BME280;6243;51.244;6.774;2023-06-19T00:26:50;153946.59;;;25.62;62.69
12358;BME280;6243;51.244;6.774;2023-06-19T00:29:15;154050.72;;;26.02;61.99
12358;BME280;6243;51.244;6.774;2023-06-19T00:31:41;154027.56;;;25.93;62.02
12358;BME280;6243;51.244;6.774;2023-06-19T00:34:06;154041.69;;;25.99;62.77
12358;BME280;6243;51.244;6.774;2023-06-19T00:36:32;154014.72;;;25.88;63.18
12358;BME280;6243;51.244;6.774;2023-06-19T00:38:59;153987.72;;;25.78;63.02
12358;BME280;6243;51.244;6.774;2023-06-19T00:41:26;153959.44;;;25.67;63.86
12358;BME280;6243;51.244;6.774;2023-06-19T00:43:52;154001.84;;;25.83;63.31
12358;BME280;6243;51.244;6.774;2023-06-19T00:46:18;153955.56;;;25.65;63.88
12358;BME280;6243;51.244;6.774;2023-06-19T00:48:43;154006.97;;;25.85;63.18
12358;BME280;6243;51.244;6.774;2023-06-19T00:51:09;153941.44;;;25.60;64.47
12358;BME280;6243;51.244;6.774;2023-06-19T00:53:35;153785.81;;;24.99;66.96
12358;BME280;6243;51.244;6.774;2023-06-19T00:56:03;153900.31;;;25.44;65.30
12358;BME280;6243;51.244;6.774;2023-06-19T00:58:29;153880.94;;;25.36;65.62
12358;BME280;6243;51.244;6.774;2023-06-19T01:00:54;153851.38;;;25.24;66.10
12358;BME280;6243;51.244;6.774;2023-06-19T01:03:20;153821.81;;;25.13;66.76
12358;BME280;6243;51.244;6.774;2023-06-19T01:05:47;153895.13;;;25.42;65.88
12358;BME280;6243;51.244;6.774;2023-06-19T01:10:59;153808.97;;;25.08;67.05
12358;BME280;6243;51.244;6.774;2023-06-19T01:13:33;153874.53;;;25.33;66.10
12358;BME280;6243;51.244;6.774;2023-06-19T01:16:01;153842.41;;;25.21;66.83
12358;BME280;6243;51.244;6.774;2023-06-19T01:18:29;153829.56;;;25.16;66.72
12358;BME280;6243;51.244;6.774;2023-06-19T01:20:55;153900.31;;;25.44;66.00
12358;BME280;6243;51.244;6.774;2023-06-19T01:23:22;153936.31;;;25.58;65.51
12358;BME280;6243;51.244;6.774;2023-06-19T01:25:48;153889.94;;;25.39;66.58
12358;BME280;6243;51.244;6.774;2023-06-19T01:28:14;153951.72;;;25.64;65.67
12358;BME280;6243;51.244;6.774;2023-06-19T01:30:41;153886.09;;;25.38;66.44
12358;BME280;6243;51.244;6.774;2023-06-19T01:33:10;153900.31;;;25.44;66.01
12358;BME280;6243;51.244;6.774;2023-06-19T01:35:41;153846.25;;;25.22;67.65
12358;BME280;6243;51.244;6.774;2023-06-19T01:38:07;153814.16;;;25.10;67.75
12358;BME280;6243;51.244;6.774;2023-06-19T01:40:35;153922.16;;;25.52;66.87
12358;BME280;6243;51.244;6.774;2023-06-19T01:43:02;153843.66;;;25.21;67.24
12358;BME280;6243;51.244;6.774;2023-06-19T01:45:29;153843.66;;;25.21;67.67
12358;BME280;6243;51.244;6.774;2023-06-19T01:47:55;153782.00;;;24.97;69.04
12358;BME280;6243;51.244;6.774;2023-06-19T01:50:21;153747.31;;;24.84;69.32
12358;BME280;6243;51.244;6.774;2023-06-19T01:52:46;153749.88;;;24.85;70.66
12358;BME280;6243;51.244;6.774;2023-06-19T01:55:13;153765.28;;;24.91;69.65
12358;BME280;6243;51.244;6.774;2023-06-19T01:57:39;153808.97;;;25.08;69.24
12358;BME280;6243;51.244;6.774;2023-06-19T02:00:06;153715.16;;;24.71;73.43
12358;BME280;6243;51.244;6.774;2023-06-19T02:02:32;153729.31;;;24.77;74.38
12358;BME280;6243;51.244;6.774;2023-06-19T02:04:57;153747.31;;;24.84;74.64
12358;BME280;6243;51.244;6.774;2023-06-19T02:07:23;153681.72;;;24.58;76.56
12358;BME280;6243;51.244;6.774;2023-06-19T02:09:48;153685.59;;;24.59;76.66
12358;BME280;6243;51.244;6.774;2023-06-19T02:12:13;153702.28;;;24.66;75.92
12358;BME280;6243;51.244;6.774;2023-06-19T02:14:40;153653.47;;;24.47;77.62
12358;BME280;6243;51.244;6.774;2023-06-19T02:17:06;153536.50;;;24.01;80.22
12358;BME280;6243;51.244;6.774;2023-06-19T02:19:31;153586.69;;;24.21;79.56
12358;BME280;6243;51.244;6.774;2023-06-19T02:21:57;153613.63;;;24.31;77.94
12358;BME280;6243;51.244;6.774;2023-06-19T02:24:22;153580.25;;;24.18;78.95
12358;BME280;6243;51.244;6.774;2023-06-19T02:26:48;153602.09;;;24.27;79.83
12358;BME280;6243;51.244;6.774;2023-06-19T02:29:13;153600.78;;;24.26;78.68
12358;BME280;6243;51.244;6.774;2023-06-19T02:31:40;153621.38;;;24.34;78.58
12358;BME280;6243;51.244;6.774;2023-06-19T02:34:06;153730.59;;;24.77;75.43
12358;BME280;6243;51.244;6.774;2023-06-19T02:36:31;153793.56;;;25.02;72.13
12358;BME280;6243;51.244;6.774;2023-06-19T02:38:57;153828.25;;;25.15;71.92
12358;BME280;6243;51.244;6.774;2023-06-19T02:41:22;153808.97;;;25.08;71.22
12358;BME280;6243;51.244;6.774;2023-06-19T02:43:48;153808.97;;;25.08;70.89
12358;BME280;6243;51.244;6.774;2023-06-19T02:46:13;153812.84;;;25.09;70.46
12358;BME280;6243;51.244;6.774;2023-06-19T02:48:40;153850.09;;;25.24;69.42
12358;BME280;6243;51.244;6.774;2023-06-19T02:51:05;153886.09;;;25.38;68.48
12358;BME280;6243;51.244;6.774;2023-06-19T02:53:31;153878.38;;;25.35;68.19
12358;BME280;6243;51.244;6.774;2023-06-19T02:55:56;153893.81;;;25.41;68.75
12358;BME280;6243;51.244;6.774;2023-06-19T02:58:22;153866.78;;;25.30;68.27
12358;BME280;6243;51.244;6.774;2023-06-19T03:00:48;153843.66;;;25.21;69.50
12358;BME280;6243;51.244;6.774;2023-06-19T03:03:13;153897.66;;;25.43;67.99
12358;BME280;6243;51.244;6.774;2023-06-19T03:05:40;153937.56;;;25.58;67.63
12358;BME280;6243;51.244;6.774;2023-06-19T03:08:06;153953.00;;;25.64;67.33
12358;BME280;6243;51.244;6.774;2023-06-19T03:10:31;153947.88;;;25.62;67.42
12358;BME280;6243;51.244;6.774;2023-06-19T03:12:57;153907.97;;;25.47;66.53
12358;BME280;6243;51.244;6.774;2023-06-19T03:15:22;153870.69;;;25.32;68.37
12358;BME280;6243;51.244;6.774;2023-06-19T03:17:47;153803.81;;;25.06;70.10
12358;BME280;6243;51.244;6.774;2023-06-19T03:20:13;153841.13;;;25.20;69.22
12358;BME280;6243;51.244;6.774;2023-06-19T03:22:40;153830.84;;;25.16;70.54
12358;BME280;6243;51.244;6.774;2023-06-19T03:25:07;153835.97;;;25.18;70.10
12358;BME280;6243;51.244;6.774;2023-06-19T03:27:33;153844.97;;;25.22;69.89
12358;BME280;6243;51.244;6.774;2023-06-19T03:29:58;153850.09;;;25.24;70.75
12358;BME280;6243;51.244;6.774;2023-06-19T03:32:24;153839.81;;;25.20;72.43
12358;BME280;6243;51.244;6.774;2023-06-19T03:34:49;153688.13;;;24.60;75.59
12358;BME280;6243;51.244;6.774;2023-06-19T03:37:14;153778.16;;;24.96;73.22
12358;BME280;6243;51.244;6.774;2023-06-19T03:39:41;153734.44;;;24.79;75.44
12358;BME280;6243;51.244;6.774;2023-06-19T03:42:07;153770.44;;;24.93;73.48
12358;BME280;6243;51.244;6.774;2023-06-19T03:44:33;153677.88;;;24.56;77.79
12358;BME280;6243;51.244;6.774;2023-06-19T03:46:59;153707.44;;;24.68;76.04
12358;BME280;6243;51.244;6.774;2023-06-19T03:49:24;153657.28;;;24.48;78.59
12358;BME280;6243;51.244;6.774;2023-06-19T03:51:50;153609.81;;;24.30;80.24
12358;BME280;6243;51.244;6.774;2023-06-19T03:54:15;153629.03;;;24.37;80.25
12358;BME280;6243;51.244;6.774;2023-06-19T03:56:42;153600.78;;;24.26;81.42
12358;BME280;6243;51.244;6.774;2023-06-19T03:59:08;153531.38;;;23.99;84.95
12358;BME280;6243;51.244;6.774;2023-06-19T04:01:33;153589.22;;;24.22;82.40
12358;BME280;6243;51.244;6.774;2023-06-19T04:03:59;153625.19;;;24.36;82.01
12358;BME280;6243;51.244;6.774;2023-06-19T04:06:24;153626.50;;;24.36;82.57
12358;BME280;6243;51.244;6.774;2023-06-19T04:08:50;153657.28;;;24.48;81.20
12358;BME280;6243;51.244;6.774;2023-06-19T04:11:15;153635.47;;;24.40;81.64
12358;BME280;6243;51.244;6.774;2023-06-19T04:13:42;153645.72;;;24.44;82.78
12358;BME280;6243;51.244;6.774;2023-06-19T04:16:07;153649.63;;;24.45;81.99
12358;BME280;6243;51.244;6.774;2023-06-19T04:18:33;153667.59;;;24.52;81.19
12358;BME280;6243;51.244;6.774;2023-06-19T04:20:58;153680.41;;;24.57;81.79
12358;BME280;6243;51.244;6.774;2023-06-19T04:23:24;153668.84;;;24.53;81.98
12358;BME280;6243;51.244;6.774;2023-06-19T04:25:50;153689.44;;;24.61;81.63
12358;BME280;6243;51.244;6.774;2023-06-19T04:28:16;153657.28;;;24.48;82.33
12358;BME280;6243;51.244;6.774;2023-06-19T04:30:43;153636.75;;;24.40;83.86
12358;BME280;6243;51.244;6.774;2023-06-19T04:33:08;153567.41;;;24.13;86.17
12358;BME280;6243;51.244;6.774;2023-06-19T04:35:34;153600.78;;;24.26;85.11
12358;BME280;6243;51.244;6.774;2023-06-19T04:37:59;153577.66;;;24.17;85.87
12358;BME280;6243;51.244;6.774;2023-06-19T04:40:25;153611.06;;;24.30;84.90
12358;BME280;6243;51.244;6.774;2023-06-19T04:42:50;153612.34;;;24.31;85.11
12358;BME280;6243;51.244;6.774;2023-06-19T04:45:15;153653.47;;;24.47;84.22
12358;BME280;6243;51.244;6.774;2023-06-19T04:47:42;153627.78;;;24.37;84.15
12358;BME280;6243;51.244;6.774;2023-06-19T04:50:08;153603.38;;;24.27;85.67
12358;BME280;6243;51.244;6.774;2023-06-19T04:52:33;153609.81;;;24.30;87.17
12358;BME280;6243;51.244;6.774;2023-06-19T04:54:59;153613.63;;;24.31;86.66
12358;BME280;6243;51.244;6.774;2023-06-19T04:57:24;153537.81;;;24.02;89.37
12358;BME280;6243;51.244;6.774;2023-06-19T04:59:50;153591.81;;;24.23;87.17
12358;BME280;6243;51.244;6.774;2023-06-19T05:02:15;153594.34;;;24.24;88.10
12358;BME280;6243;51.244;6.774;2023-06-19T05:04:42;153567.41;;;24.13;88.21
12358;BME280;6243;51.244;6.774;2023-06-19T05:07:08;153629.03;;;24.37;87.94
12358;BME280;6243;51.244;6.774;2023-06-19T05:09:33;153621.38;;;24.34;89.00
12358;BME280;6243;51.244;6.774;2023-06-19T05:11:59;153667.59;;;24.52;87.28
12358;BME280;6243;51.244;6.774;2023-06-19T05:14:24;153672.75;;;24.54;87.44
12358;BME280;6243;51.244;6.774;2023-06-19T05:16:50;153657.28;;;24.48;87.78
12358;BME280;6243;51.244;6.774;2023-06-19T05:19:15;153666.31;;;24.52;88.11
12358;BME280;6243;51.244;6.774;2023-06-19T05:21:42;153691.97;;;24.62;86.38
12358;BME280;6243;51.244;6.774;2023-06-19T05:24:07;153688.13;;;24.60;87.57
12358;BME280;6243;51.244;6.774;2023-06-19T05:26:33;153722.81;;;24.74;86.98
12358;BME280;6243;51.244;6.774;2023-06-19T05:28:58;153698.41;;;24.64;87.49
12358;BME280;6243;51.244;6.774;2023-06-19T05:31:24;153735.72;;;24.79;87.30
12358;BME280;6243;51.244;6.774;2023-06-19T05:33:49;153658.59;;;24.49;89.02
12358;BME280;6243;51.244;6.774;2023-06-19T05:36:15;153663.72;;;24.51;89.16
12358;BME280;6243;51.244;6.774;2023-06-19T05:38:42;153747.31;;;24.84;86.70
12358;BME280;6243;51.244;6.774;2023-06-19T05:41:08;153765.28;;;24.91;86.14
12358;BME280;6243;51.244;6.774;2023-06-19T05:43:33;153703.53;;;24.66;88.39
12358;BME280;6243;51.244;6.774;2023-06-19T05:45:59;153719.00;;;24.73;88.29
12358;BME280;6243;51.244;6.774;2023-06-19T05:48:24;153794.84;;;25.02;86.08
12358;BME280;6243;51.244;6.774;2023-06-19T05:50:50;153805.13;;;25.06;85.58
12358;BME280;6243;51.244;6.774;2023-06-19T05:53:16;153704.84;;;24.67;90.20
12358;BME280;6243;51.244;6.774;2023-06-19T05:55:43;153698.41;;;24.64;90.12
12358;BME280;6243;51.244;6.774;2023-06-19T05:58:08;153659.88;;;24.49;91.69
12358;BME280;6243;51.244;6.774;2023-06-19T06:00:34;153765.28;;;24.91;87.91
12358;BME280;6243;51.244;6.774;2023-06-19T06:02:59;153788.44;;;25.00;87.53
12358;BME280;6243;51.244;6.774;2023-06-19T06:05:25;153815.38;;;25.10;86.65
12358;BME280;6243;51.244;6.774;2023-06-19T06:07:50;153848.84;;;25.23;85.09
12358;BME280;6243;51.244;6.774;2023-06-19T06:10:16;153773.03;;;24.94;87.79
12358;BME280;6243;51.244;6.774;2023-06-19T06:12:43;153817.97;;;25.11;86.87
12358;BME280;6243;51.244;6.774;2023-06-19T06:15:08;153808.97;;;25.08;86.80
12358;BME280;6243;51.244;6.774;2023-06-19T06:17:34;153677.88;;;24.56;90.82
12358;BME280;6243;51.244;6.774;2023-06-19T06:19:59;153815.38;;;25.10;87.53
12358;BME280;6243;51.244;6.774;2023-06-19T06:22:25;153802.59;;;25.05;85.50
12358;BME280;6243;51.244;6.774;2023-06-19T06:24:50;153866.78;;;25.30;84.32
12358;BME280;6243;51.244;6.774;2023-06-19T06:27:16;153879.66;;;25.35;84.08
12358;BME280;6243;51.244;6.774;2023-06-19T06:29:43;153891.22;;;25.40;84.52
12358;BME280;6243;51.244;6.774;2023-06-19T06:32:09;153884.78;;;25.37;84.09
12358;BME280;6243;51.244;6.774;2023-06-19T06:34:35;153904.13;;;25.45;82.87
12358;BME280;6243;51.244;6.774;2023-06-19T06:37:00;153853.97;;;25.25;84.43
12358;BME280;6243;51.244;6.774;2023-06-19T06:39:26;153834.69;;;25.18;84.36
12358;BME280;6243;51.244;6.774;2023-06-19T06:41:51;153806.41;;;25.07;85.50
12358;BME280;6243;51.244;6.774;2023-06-19T06:44:17;153866.78;;;25.30;83.66
12358;BME280;6243;51.244;6.774;2023-06-19T06:46:44;153861.66;;;25.28;82.74
12358;BME280;6243;51.244;6.774;2023-06-19T06:49:10;153850.09;;;25.24;83.71
12358;BME280;6243;51.244;6.774;2023-06-19T06:51:36;153899.00;;;25.43;82.72
12358;BME280;6243;51.244;6.774;2023-06-19T06:54:01;153875.81;;;25.34;83.81
12358;BME280;6243;51.244;6.774;2023-06-19T06:56:27;153895.13;;;25.42;82.96
12358;BME280;6243;51.244;6.774;2023-06-19T06:58:52;153899.00;;;25.43;82.45
12358;BME280;6243;51.244;6.774;2023-06-19T07:01:18;153907.97;;;25.47;81.16
12358;BME280;6243;51.244;6.774;2023-06-19T07:03:45;153941.44;;;25.60;81.19
12358;BME280;6243;51.244;6.774;2023-06-19T07:06:10;153924.72;;;25.53;80.18
12358;BME280;6243;51.244;6.774;2023-06-19T07:08:36;153929.88;;;25.55;80.21
12358;BME280;6243;51.244;6.774;2023-06-19T07:11:01;153940.16;;;25.59;81.16
12358;BME280;6243;51.244;6.774;2023-06-19T07:13:27;153932.41;;;25.56;81.18
12358;BME280;6243;51.244;6.774;2023-06-19T07:15:52;153940.16;;;25.59;80.46
12358;BME280;6243;51.244;6.774;2023-06-19T07:18:17;153971.03;;;25.71;79.16
12358;BME280;6243;51.244;6.774;2023-06-19T07:20:44;153907.97;;;25.47;79.61
12358;BME280;6243;51.244;6.774;2023-06-19T07:23:10;153848.84;;;25.23;81.25
12358;BME280;6243;51.244;6.774;2023-06-19T07:25:36;153928.56;;;25.55;81.08
12358;BME280;6243;51.244;6.774;2023-06-19T07:28:02;153935.00;;;25.57;79.99
12358;BME280;6243;51.244;6.774;2023-06-19T07:30:27;153968.41;;;25.70;80.78
12358;BME280;6243;51.244;6.774;2023-06-19T07:32:53;153935.00;;;25.57;82.32
12358;BME280;6243;51.244;6.774;2023-06-19T07:35:19;153945.28;;;25.61;83.71
12358;BME280;6243;51.244;6.774;2023-06-19T07:37:46;153799.97;;;25.04;95.89
12358;BME280;6243;51.244;6.774;2023-06-19T07:40:11;153851.38;;;25.24;97.30
12358;BME280;6243;51.244;6.774;2023-06-19T07:42:37;153857.81;;;25.27;98.85
12358;BME280;6243;51.244;6.774;2023-06-19T07:45:03;153847.53;;;25.23;97.42
12358;BME280;6243;51.244;6.774;2023-06-19T07:47:29;153834.69;;;25.18;96.54
12358;BME280;6243;51.244;6.774;2023-06-19T07:49:54;153873.22;;;25.33;94.55
12358;BME280;6243;51.244;6.774;2023-06-19T07:52:20;153860.41;;;25.28;93.69
12358;BME280;6243;51.244;6.774;2023-06-19T07:54:52;153911.88;;;25.48;92.57
12358;BME280;6243;51.244;6.774;2023-06-19T07:57:18;153889.94;;;25.39;92.99
12358;BME280;6243;51.244;6.774;2023-06-19T07:59:44;153956.84;;;25.66;89.43
12358;BME280;6243;51.244;6.774;2023-06-19T08:02:09;153977.41;;;25.74;88.13
12358;BME280;6243;51.244;6.774;2023-06-19T08:04:35;154028.88;;;25.94;86.96
12358;BME280;6243;51.244;6.774;2023-06-19T08:07:00;154052.03;;;26.03;85.86
12358;BME280;6243;51.244;6.774;2023-06-19T08:09:26;154024.97;;;25.92;87.33
12358;BME280;6243;51.244;6.774;2023-06-19T08:11:52;154091.94;;;26.19;84.36
12358;BME280;6243;51.244;6.774;2023-06-19T08:14:18;154088.09;;;26.17;83.68
12358;BME280;6243;51.244;6.774;2023-06-19T08:16:43;154143.38;;;26.39;82.93
12358;BME280;6243;51.244;6.774;2023-06-19T08:19:09;154148.50;;;26.41;79.61
12358;BME280;6243;51.244;6.774;2023-06-19T08:21:34;154122.81;;;26.31;80.47
12358;BME280;6243;51.244;6.774;2023-06-19T08:24:00;154187.13;;;26.56;79.52
12358;BME280;6243;51.244;6.774;2023-06-19T08:26:26;154259.19;;;26.84;77.69
12358;BME280;6243;51.244;6.774;2023-06-19T08:28:53;154295.25;;;26.98;76.18
12358;BME280;6243;51.244;6.774;2023-06-19T08:31:19;154300.38;;;27.00;76.28
12358;BME280;6243;51.244;6.774;2023-06-19T08:33:46;154323.53;;;27.09;74.13
12358;BME280;6243;51.244;6.774;2023-06-19T08:36:12;154359.59;;;27.23;73.81
12358;BME280;6243;51.244;6.774;2023-06-19T08:38:37;154384.06;;;27.33;72.99
12358;BME280;6243;51.244;6.774;2023-06-19T08:41:03;154396.97;;;27.38;72.35
12358;BME280;6243;51.244;6.774;2023-06-19T08:43:28;154377.59;;;27.30;70.21
12358;BME280;6243;51.244;6.774;2023-06-19T08:46:09;154288.81;;;26.96;70.77
12358;BME280;6243;51.244;6.774;2023-06-19T08:48:35;154169.13;;;26.49;74.08
12358;BME280;6243;51.244;6.774;2023-06-19T08:51:00;154344.16;;;27.17;71.17
12358;BME280;6243;51.244;6.774;2023-06-19T08:53:26;154413.72;;;27.45;69.67
12358;BME280;6243;51.244;6.774;2023-06-19T08:55:51;154460.06;;;27.63;69.17
12358;BME280;6243;51.244;6.774;2023-06-19T08:58:21;154404.69;;;27.41;70.91
12358;BME280;6243;51.244;6.774;2023-06-19T09:00:47;154440.72;;;27.55;69.23
12358;BME280;6243;51.244;6.774;2023-06-19T09:03:19;154539.84;;;27.94;67.96
12358;BME280;6243;51.244;6.774;2023-06-19T09:05:45;154563.09;;;28.03;67.53
12358;BME280;6243;51.244;6.774;2023-06-19T09:08:13;154586.28;;;28.12;65.12
12358;BME280;6243;51.244;6.774;2023-06-19T09:10:38;154547.59;;;27.97;63.74
12358;BME280;6243;51.244;6.774;2023-06-19T09:13:04;154508.94;;;27.82;63.41
12358;BME280;6243;51.244;6.774;2023-06-19T09:15:31;154538.56;;;27.93;63.87
12358;BME280;6243;51.244;6.774;2023-06-19T09:18:01;154605.59;;;28.20;61.93
12358;BME280;6243;51.244;6.774;2023-06-19T09:20:28;154606.91;;;28.20;62.42
12358;BME280;6243;51.244;6.774;2023-06-19T09:22:54;154663.56;;;28.42;61.68
12358;BME280;6243;51.244;6.774;2023-06-19T09:25:20;154764.09;;;28.82;60.39
12358;BME280;6243;51.244;6.774;2023-06-19T09:27:45;154771.78;;;28.85;59.66
12358;BME280;6243;51.244;6.774;2023-06-19T09:30:14;154847.81;;;29.14;58.05
12358;BME280;6243;51.244;6.774;2023-06-19T09:32:40;154895.56;;;29.33;57.89
12358;BME280;6243;51.244;6.774;2023-06-19T09:35:06;154923.91;;;29.44;57.04
12358;BME280;6243;51.244;6.774;2023-06-19T09:37:33;154963.84;;;29.60;57.32
12358;BME280;6243;51.244;6.774;2023-06-19T09:40:00;154993.50;;;29.71;56.63
12358;BME280;6243;51.244;6.774;2023-06-19T09:42:31;154749.91;;;28.76;58.83
12358;BME280;6243;51.244;6.774;2023-06-19T09:45:00;154756.34;;;28.78;58.96
12358;BME280;6243;51.244;6.774;2023-06-19T09:47:30;154944.56;;;29.52;56.40
12358;BME280;6243;51.244;6.774;2023-06-19T09:49:57;155025.81;;;29.84;55.68
12358;BME280;6243;51.244;6.774;2023-06-19T09:52:23;155052.88;;;29.94;55.12
12358;BME280;6243;51.244;6.774;2023-06-19T09:54:51;155028.38;;;29.85;55.52
12358;BME280;6243;51.244;6.774;2023-06-19T09:57:17;155003.91;;;29.75;55.43
12358;BME280;6243;51.244;6.774;2023-06-19T09:59:43;155045.16;;;29.91;54.42
12358;BME280;6243;51.244;6.774;2023-06-19T10:02:09;155072.22;;;30.02;53.22
12358;BME280;6243;51.244;6.774;2023-06-19T10:04:42;155135.41;;;30.27;53.12
12358;BME280;6243;51.244;6.774;2023-06-19T10:07:15;155148.31;;;30.32;52.21
12358;BME280;6243;51.244;6.774;2023-06-19T10:09:40;155168.97;;;30.40;51.98
12358;BME280;6243;51.244;6.774;2023-06-19T10:12:13;155243.81;;;30.69;51.18
12358;BME280;6243;51.244;6.774;2023-06-19T10:14:46;155236.06;;;30.66;50.12
12358;BME280;6243;51.244;6.774;2023-06-19T10:17:11;155248.97;;;30.71;50.21
12358;BME280;6243;51.244;6.774;2023-06-19T10:19:37;155268.28;;;30.78;50.58
12358;BME280;6243;51.244;6.774;2023-06-19T10:22:03;155145.72;;;30.31;50.59
12358;BME280;6243;51.244;6.774;2023-06-19T10:24:29;155211.56;;;30.56;50.91
12358;BME280;6243;51.244;6.774;2023-06-19T10:26:59;155109.59;;;30.16;49.90
12358;BME280;6243;51.244;6.774;2023-06-19T10:29:26;155290.25;;;30.87;49.87
12358;BME280;6243;51.244;6.774;2023-06-19T10:31:52;155424.50;;;31.39;49.02
12358;BME280;6243;51.244;6.774;2023-06-19T10:34:17;155503.25;;;31.70;48.03
12358;BME280;6243;51.244;6.774;2023-06-19T10:36:43;155545.84;;;31.87;47.55
12358;BME280;6243;51.244;6.774;2023-06-19T10:39:09;155583.31;;;32.01;48.12
12358;BME280;6243;51.244;6.774;2023-06-19T10:41:34;155628.53;;;32.19;46.66
12358;BME280;6243;51.244;6.774;2023-06-19T10:44:02;155614.31;;;32.13;45.74
12358;BME280;6243;51.244;6.774;2023-06-19T10:46:31;155668.56;;;32.35;46.16
12358;BME280;6243;51.244;6.774;2023-06-19T10:48:57;155580.75;;;32.00;45.75
12358;BME280;6243;51.244;6.774;2023-06-19T10:51:23;155592.38;;;32.05;45.78
12358;BME280;6243;51.244;6.774;2023-06-19T10:53:49;155489.06;;;31.65;45.97
12358;BME280;6243;51.244;6.774;2023-06-19T10:56:14;155504.56;;;31.71;45.44
12358;BME280;6243;51.244;6.774;2023-06-19T10:58:40;155535.53;;;31.83;45.46
12358;BME280;6243;51.244;6.774;2023-06-19T11:01:05;155269.59;;;30.79;46.32
12358;BME280;6243;51.244;6.774;2023-06-19T11:03:33;155548.41;;;31.88;45.85
12358;BME280;6243;51.244;6.774;2023-06-19T11:05:58;155587.22;;;32.03;45.04
12358;BME280;6243;51.244;6.774;2023-06-19T11:08:24;155662.09;;;32.32;45.19
12358;BME280;6243;51.244;6.774;2023-06-19T11:10:50;155757.72;;;32.69;44.59
12358;BME280;6243;51.244;6.774;2023-06-19T11:13:17;155826.16;;;32.96;43.99
12358;BME280;6243;51.244;6.774;2023-06-19T11:15:42;155853.34;;;33.07;43.32
12358;BME280;6243;51.244;6.774;2023-06-19T11:18:08;155898.59;;;33.24;43.89
12358;BME280;6243;51.244;6.774;2023-06-19T11:20:45;155929.56;;;33.36;42.50
12358;BME280;6243;51.244;6.774;2023-06-19T11:23:11;155995.53;;;33.62;42.46
12358;BME280;6243;51.244;6.774;2023-06-19T11:25:37;155977.44;;;33.55;41.99
12358;BME280;6243;51.244;6.774;2023-06-19T11:28:03;155967.06;;;33.51;41.09
12358;BME280;6243;51.244;6.774;2023-06-19T11:30:30;156014.91;;;33.70;41.68
12358;BME280;6243;51.244;6.774;2023-06-19T11:32:57;155946.34;;;33.43;41.21
12358;BME280;6243;51.244;6.774;2023-06-19T11:35:23;155938.63;;;33.40;42.15
12358;BME280;6243;51.244;6.774;2023-06-19T11:37:51;155973.56;;;33.53;42.10
12358;BME280;6243;51.244;6.774;2023-06-19T11:40:16;156106.72;;;34.05;41.15
12358;BME280;6243;51.244;6.774;2023-06-19T11:42:47;156145.47;;;34.20;40.81
12358;BME280;6243;51.244;6.774;2023-06-19T11:45:13;156120.97;;;34.11;40.93
12358;BME280;6243;51.244;6.774;2023-06-19T11:47:38;156137.75;;;34.17;40.98
12358;BME280;6243;51.244;6.774;2023-06-19T11:50:06;156210.13;;;34.46;41.11
12358;BME280;6243;51.244;6.774;2023-06-19T11:52:32;156130.00;;;34.14;40.22
12358;BME280;6243;51.244;6.774;2023-06-19T11:54:59;156140.31;;;34.18;40.77
12358;BME280;6243;51.244;6.774;2023-06-19T11:57:26;156102.84;;;34.04;39.43
12358;BME280;6243;51.244;6.774;2023-06-19T11:59:51;156221.75;;;34.50;40.56
12358;BME280;6243;51.244;6.774;2023-06-19T12:02:17;156303.31;;;34.82;37.66
12358;BME280;6243;51.244;6.774;2023-06-19T12:04:42;156342.09;;;34.97;37.31
12358;BME280;6243;51.244;6.774;2023-06-19T12:07:08;156410.69;;;35.24;38.38
12358;BME280;6243;51.244;6.774;2023-06-19T12:09:34;156414.59;;;35.25;38.02
12358;BME280;6243;51.244;6.774;2023-06-19T12:12:01;156404.22;;;35.21;38.14
12358;BME280;6243;51.244;6.774;2023-06-19T12:14:26;156418.47;;;35.27;38.52
12358;BME280;6243;51.244;6.774;2023-06-19T12:16:52;156342.09;;;34.97;38.93
12358;BME280;6243;51.244;6.774;2023-06-19T12:19:17;156163.59;;;34.27;38.65
12358;BME280;6243;51.244;6.774;2023-06-19T12:21:43;156039.50;;;33.79;39.65
12358;BME280;6243;51.244;6.774;2023-06-19T12:24:08;155835.19;;;33.00;39.85
12358;BME280;6243;51.244;6.774;2023-06-19T12:26:34;155735.75;;;32.61;40.19
12358;BME280;6243;51.244;6.774;2023-06-19T12:29:01;156022.63;;;33.73;40.13
12358;BME280;6243;51.244;6.774;2023-06-19T12:31:27;155849.47;;;33.05;40.19
12358;BME280;6243;51.244;6.774;2023-06-19T12:33:52;155998.13;;;33.63;39.72
12358;BME280;6243;51.244;6.774;2023-06-19T12:36:18;156109.31;;;34.06;39.25
12358;BME280;6243;51.244;6.774;2023-06-19T12:38:43;156142.94;;;34.19;39.03
12358;BME280;6243;51.244;6.774;2023-06-19T12:41:09;156171.34;;;34.31;38.82
12358;BME280;6243;51.244;6.774;2023-06-19T12:43:34;155994.22;;;33.62;39.67
12358;BME280;6243;51.244;6.774;2023-06-19T12:46:01;155765.44;;;32.72;40.28
12358;BME280;6243;51.244;6.774;2023-06-19T12:48:27;155839.16;;;33.01;40.94
12358;BME280;6243;51.244;6.774;2023-06-19T12:50:53;156021.38;;;33.72;40.42
12358;BME280;6243;51.244;6.774;2023-06-19T12:53:18;156119.66;;;34.10;39.69
12358;BME280;6243;51.244;6.774;2023-06-19T12:55:44;156163.59;;;34.27;38.62